• Join FlightAware (Why Join?)
  • Login
  • US Flag 
09:16PM EST


 

Airport Tracker/Info


-or-


 

Live Flight TrackerFlight Track Log ✈ UCA3599 ✈ 01-Nov-2013 ✈ KBGM - KIAD

Flight Track Log - Related Links

Times and Time Zones

All times are in EDT time to prevent confusion due to time zone crossing. See the UCA3599 flight status page for this flight to view local times or setup timezone preferences in your user account.

Time Position Orientation Groundspeed Altitude Reporting Facility
EDT Latitude Longitude Course Direction KTS MPH feet Rate Location/Type
06:16AM 42.1844 -75.9678 209° Southwest 107 123 3,000  Level New York Center
06:17AM 42.1628 -75.9856 211° Southwest 111 128 4,300 1,380 Climbing New York Center
06:18AM 42.1389 -76.0061 213° Southwest 119 137 5,800 1,500 Climbing New York Center
06:19AM 42.1150 -76.0294 216° Southwest 109 125 7,300 1,140 Climbing New York Center
06:20AM 42.0911 -76.0556 219° Southwest 109 125 8,100 360 Climbing New York Center
06:21AM 42.0539 -76.0917 216° Southwest 137 158 8,100 300 Level New York Center
06:22AM 41.9665 -76.0949 209° Southwest  Level Estimated
06:22AM 42.0169 -76.1278 216° Southwest 179 206 8,700  Level New York Center
06:23AM 41.9800 -76.1611 214° Southwest 170 196 10,100 1,200 Climbing New York Center
06:24AM 41.9472 -76.1947 217° Southwest 156 180 11,100 960 Climbing New York Center
06:25AM 41.9147 -76.2225 212° Southwest 156 180 12,100 1,020 Climbing New York Center
06:26AM 41.8819 -76.2561 217° Southwest 161 185 13,200 1,200 Climbing New York Center
06:27AM 41.8469 -76.2922 218° Southwest 156 180 14,500 1,200 Climbing New York Center
06:28AM 41.8144 -76.3228 215° Southwest 156 180 15,600 720 Climbing New York Center
06:29AM 41.7819 -76.3508 213° Southwest 156 180 16,000 180 Climbing New York Center
06:30AM 41.7372 -76.3692 197° South 169 194 16,000  Level New York Center
06:31AM 41.6861 -76.3928 199° South 194 223 16,000  Level New York Center
06:32AM 41.6289 -76.4158 197° South 199 229 16,000  Level New York Center
06:33AM 41.5797 -76.4392 200° South 194 223 16,000  Level New York Center
06:34AM 41.5350 -76.4633 202° Southwest 194 223 16,000  Level New York Center
06:35AM 41.4858 -76.4867 200° South 194 223 16,000  Level New York Center
06:36AM 41.4328 -76.5100 198° South 194 223 16,000  Level New York Center
06:37AM 41.3858 -76.5336 201° Southwest 194 223 16,000  Level New York Center
06:38AM 41.3386 -76.5572 201° Southwest 194 223 16,000  Level New York Center
06:39AM 41.2961 -76.5756 198° South 194 223 16,000  Level New York Center
06:40AM 41.2472 -76.5989 200° South 194 223 16,000  Level New York Center
06:41AM 41.1939 -76.6219 198° South 194 223 16,000  Level New York Center
06:42AM 41.1447 -76.6453 200° South 194 223 16,000  Level New York Center
06:43AM 41.0981 -76.6661 199° South 194 223 16,000  Level New York Center
06:44AM 41.0450 -76.6861 196° South 194 223 16,000  Level New York Center
06:45AM 40.9894 -76.7089 197° South 199 229 16,000 -60 Level New York Center
06:46AM 40.9322 -76.7314 197° South 199 229 15,900  Descending New York Center
06:47AM 40.8767 -76.7567 199° South 205 236 16,000  Climbing New York Center
06:48AM 40.8194 -76.7764 195° South 218 251 16,000  Level New York Center
06:49AM 40.7661 -76.7992 198° South 213 245 16,000  Level New York Center
06:50AM 40.7194 -76.8169 196° South 207 238 16,000 60 Level New York Center
06:51AM 40.6619 -76.8419 198° South 207 238 16,200  Climbing New York Center
06:52AM 40.6128 -76.8622 197° South 207 238 16,000 -120 Descending New York Center
06:53AM 40.5492 -76.8867 196° South 212 244 16,000  Level New York Center
06:54AM 40.5003 -76.9042 195° South 212 244 16,000 -300 Level New York Center
06:55AM 40.4406 -76.9289 197° South 212 244 15,500 -720 Descending New York Center
06:56AM 40.3894 -76.9517 199° South 212 244 14,600 -1,020 Descending New York Center
06:57AM 40.3236 -76.9756 195° South 218 251 13,500 -1,020 Descending New York Center
06:58AM 40.2703 -76.9953 196° South 223 257 12,600 -1,020 Descending New York Center
06:59AM 40.2106 -77.0200 198° South 223 257 11,500 -1,080 Descending New York Center
07:00AM 40.1681 -77.0350 195° South 194 223 10,500 -1,020 Descending New York Center
07:01AM 40.1169 -77.0550 197° South 183 211 9,500 -360 Descending New York Center
07:05AM 39.9667 -77.1167 197° South 170 196 9,000 -120 Descending Potomac TRACON
07:07AM 39.8500 -77.1500 192° South 204 235 9,000 -360 Level Potomac TRACON
07:08AM 39.8000 -77.1833 207° Southwest 199 229 8,000 -540 Descending Potomac TRACON
07:09AM 39.7500 -77.2000 194° South 181 208 8,000 -480 Level Potomac TRACON
07:10AM 39.7000 -77.2000 180° South 187 215 7,100 -540 Descending Potomac TRACON
07:11AM 39.6500 -77.1833 166° South 209 241 7,000 -60 Descending Potomac TRACON
07:12AM 39.5833 -77.1667 169° South 212 244 7,000  Level Potomac TRACON
07:13AM 39.5333 -77.1667 180° South 205 236 7,000  Level Potomac TRACON
07:14AM 39.4833 -77.2000 207° Southwest 200 230 7,000  Level Potomac TRACON
07:15AM 39.4500 -77.2333 218° Southwest 197 227 7,000  Level Potomac TRACON
07:16AM 39.4000 -77.2500 194° South 195 224 7,000 -120 Level Potomac TRACON
07:16AM 39.3667 -77.3000 229° Southwest 188 216 6,800 -780 Descending Potomac TRACON
07:17AM 39.3167 -77.3333 207° Southwest 176 203 5,600 -1,260 Descending Potomac TRACON
07:18AM 39.2833 -77.3833 229° Southwest 175 201 4,500 -1,260 Descending Potomac TRACON
07:19AM 39.2500 -77.4167 218° Southwest 184 212 3,300 -780 Descending Potomac TRACON
07:20AM 39.2000 -77.4500 207° Southwest 187 215 3,000 -180 Descending Potomac TRACON
07:21AM 39.1667 -77.4500 180° South 173 199 3,000 -60 Level Potomac TRACON
07:22AM 39.1167 -77.4500 180° South 173 199 2,900 -420 Descending Potomac TRACON
07:23AM 39.0833 -77.4500 180° South 148 170 2,300 -780 Descending Potomac TRACON
07:24AM 39.0333 -77.4667 195° South 152 175 1,500 -720 Descending Potomac TRACON
07:25AM 39.0000 -77.4667 180° South 121 139 900 -600 Descending Potomac TRACON
07:27AM 38.9474 -77.4599 133° Southeast  Level Estimated
07:34AM 38.9474 -77.4599 345° North  Level Estimated